Tuesday, April 24, 2018, 4:36 AM EDT
Back to Local

KFOK, The Gabreski Airport

Location: East Quogue, NY, United States Lat: 40.85
Local Time: 4:36 AM EDT ( 8:36 GMT) Lon: -72.617
Time Zone: US/Eastern Elev: 65 ft

Show me the last for .
Show Decoded

2018-04-24 03:53 METAR KFOK 240753Z AUTO 00000KT 10SM FEW002 M03/M06 A3044 RMK AO2 SLP307
                 T10331056 =
2018-04-24 03:50 METAR KFOK 240750Z AUTO 00000KT 10SM FEW002 M03/M06 A3044 RMK AO2 =
2018-04-24 02:53 METAR KFOK 240653Z AUTO 00000KT 10SM CLR M02/M05 A3044 RMK AO2 SLP309 T10221050
                 =
2018-04-24 01:53 METAR KFOK 240553Z AUTO 00000KT 10SM CLR M02/M04 A3045 RMK AO2 SLP312 T10171044
                 10061 21022 58008 =
2018-04-24 00:53 METAR KFOK 240453Z AUTO 00000KT 10SM CLR M01/M04 A3046 RMK AO2 SLP316 T10111044
                 401441039 =
2018-04-23 23:53 METAR KFOK 240353Z AUTO 00000KT 10SM CLR M01/M04 A3047 RMK AO2 SLP319 T10061039
                 =
2018-04-23 22:53 METAR KFOK 240253Z 00000KT 10SM CLR 01/M03 A3047 RMK AO2 SLP320 T00061033 50002
                 =
2018-04-23 21:53 METAR KFOK 240153Z 00000KT 10SM CLR 01/M03 A3048 RMK AO2 SLP322 T00111033 =
2018-04-23 20:53 METAR KFOK 240053Z 00000KT 10SM CLR 02/M03 A3048 RMK AO2 SLP321 T00221028 =
2018-04-23 19:53 METAR KFOK 232353Z 00000KT 10SM CLR 07/M01 A3047 RMK AO2 SLP318 T00671006 10144
                 20067 56002 =
2018-04-23 18:53 METAR KFOK 232253Z 19006KT 10SM CLR 10/M01 A3047 RMK AO2 SLP318 T01001006 =
2018-04-23 17:53 METAR KFOK 232153Z 16007KT 10SM CLR 12/M02 A3047 RMK AO2 SLP317 T01171017 =
2018-04-23 16:53 METAR KFOK 232053Z 15007KT 10SM CLR 12/M02 A3047 RMK AO2 SLP320 T01221022 56009
                 =
2018-04-23 15:53 METAR KFOK 231953Z 16008KT 10SM CLR 14/M08 A3048 RMK AO2 SLP321 T01391078 =
2018-04-23 14:53 METAR KFOK 231853Z 11009KT 10SM CLR 13/M08 A3049 RMK AO2 SLP324 T01331078 =
2018-04-23 13:53 METAR KFOK 231753Z 11009KT 10SM CLR 14/M08 A3050 RMK AO2 SLP329 T01391078 10139
                 20111 58004 =
2018-04-23 12:53 METAR KFOK 231653Z 12006G15KT 10SM CLR 12/M05 A3051 RMK AO2 SLP333 T01221050 =
2018-04-23 11:53 METAR KFOK 231553Z 12010G14KT 10SM CLR 12/M06 A3052 RMK AO2 SLP335 T01221056 =
2018-04-23 10:53 METAR KFOK 231453Z 12011KT 10SM CLR 13/M08 A3051 RMK AO2 SLP333 T01331083 53006
                 =
2018-04-23 09:53 METAR KFOK 231353Z 09011KT 10SM CLR 13/M08 A3049 RMK AO2 SLP327 T01331078 =
2018-04-23 08:53 METAR KFOK 231253Z 08008KT 10SM CLR 13/M07 A3049 RMK AO2 SLP325 T01281067 =
2018-04-23 07:53 METAR KFOK 231153Z 04006KT 10SM CLR 11/02 A3049 RMK AO2 SLP326 T01060022 10106
                 21039 53014 =
2018-04-23 06:53 METAR KFOK 231053Z 00000KT 10SM CLR M02/M04 A3048 RMK AO2 SLP321 T10171044 =
2018-04-23 05:53 METAR KFOK 230953Z AUTO 00000KT 10SM CLR M03/M07 A3046 RMK AO2 SLP317 T10331067
                 =
2018-04-23 04:53 METAR KFOK 230853Z AUTO 00000KT 10SM CLR M03/M06 A3045 RMK AO2 SLP312 T10281056
                 53010 =

Support USWX by starting your Amazon purchase here.